sensor_id;sensor_type;location;lat;lon;timestamp;P1;durP1;ratioP1;P2;durP2;ratioP2
15938;SDS011;8068;51.322;9.450;2023-08-30T12:19:45;9.00;;;4.20;;
15938;SDS011;8068;51.322;9.450;2023-08-30T12:22:41;11.80;;;3.63;;
15938;SDS011;8068;51.322;9.450;2023-08-30T12:25:28;4.10;;;3.80;;
15938;SDS011;8068;51.322;9.450;2023-08-30T12:28:16;3.87;;;3.67;;
15938;SDS011;8068;51.322;9.450;2023-08-30T12:31:03;6.97;;;3.60;;
15938;SDS011;8068;51.322;9.450;2023-08-30T12:33:51;4.37;;;3.60;;
15938;SDS011;8068;51.322;9.450;2023-08-30T12:36:38;3.80;;;3.53;;
15938;SDS011;8068;51.322;9.450;2023-08-30T12:39:25;9.03;;;3.80;;
15938;SDS011;8068;51.322;9.450;2023-08-30T12:42:12;4.63;;;3.90;;
15938;SDS011;8068;51.322;9.450;2023-08-30T12:44:58;4.50;;;4.20;;
15938;SDS011;8068;51.322;9.450;2023-08-30T12:47:45;4.27;;;3.80;;
15938;SDS011;8068;51.322;9.450;2023-08-30T12:50:32;4.20;;;3.90;;
15938;SDS011;8068;51.322;9.450;2023-08-30T12:53:19;3.47;;;3.30;;
15938;SDS011;8068;51.322;9.450;2023-08-30T12:56:06;3.60;;;3.40;;
15938;SDS011;8068;51.322;9.450;2023-08-30T12:58:53;10.80;;;3.93;;
15938;SDS011;8068;51.322;9.450;2023-08-30T13:01:40;3.80;;;3.60;;
15938;SDS011;8068;51.322;9.450;2023-08-30T13:04:27;5.80;;;3.57;;
15938;SDS011;8068;51.322;9.450;2023-08-30T13:07:14;4.43;;;3.60;;
15938;SDS011;8068;51.322;9.450;2023-08-30T13:10:01;4.30;;;4.10;;
15938;SDS011;8068;51.322;9.450;2023-08-30T13:12:48;4.07;;;3.77;;
15938;SDS011;8068;51.322;9.450;2023-08-30T13:15:35;4.13;;;3.80;;
15938;SDS011;8068;51.322;9.450;2023-08-30T13:18:22;3.93;;;3.70;;
15938;SDS011;8068;51.322;9.450;2023-08-30T13:21:09;3.73;;;3.50;;
15938;SDS011;8068;51.322;9.450;2023-08-30T13:23:56;4.73;;;3.87;;
15938;SDS011;8068;51.322;9.450;2023-08-30T13:26:43;3.73;;;3.27;;
15938;SDS011;8068;51.322;9.450;2023-08-30T13:29:31;4.27;;;3.87;;
15938;SDS011;8068;51.322;9.450;2023-08-30T13:32:18;5.63;;;3.33;;
15938;SDS011;8068;51.322;9.450;2023-08-30T13:35:05;4.17;;;3.50;;
15938;SDS011;8068;51.322;9.450;2023-08-30T13:37:52;3.47;;;3.27;;
15938;SDS011;8068;51.322;9.450;2023-08-30T13:40:39;3.20;;;3.00;;
15938;SDS011;8068;51.322;9.450;2023-08-30T13:43:26;3.50;;;3.20;;
15938;SDS011;8068;51.322;9.450;2023-08-30T13:46:13;5.93;;;3.70;;
15938;SDS011;8068;51.322;9.450;2023-08-30T13:49:00;4.33;;;4.03;;
15938;SDS011;8068;51.322;9.450;2023-08-30T13:51:46;4.40;;;4.10;;
15938;SDS011;8068;51.322;9.450;2023-08-30T13:54:33;4.50;;;4.23;;
15938;SDS011;8068;51.322;9.450;2023-08-30T13:57:20;4.73;;;4.33;;
15938;SDS011;8068;51.322;9.450;2023-08-30T14:00:07;4.73;;;4.30;;
15938;SDS011;8068;51.322;9.450;2023-08-30T14:02:56;12.73;;;4.83;;
15938;SDS011;8068;51.322;9.450;2023-08-30T14:05:44;5.43;;;4.87;;
15938;SDS011;8068;51.322;9.450;2023-08-30T14:08:31;5.57;;;4.07;;
15938;SDS011;8068;51.322;9.450;2023-08-30T14:11:18;4.23;;;3.83;;
15938;SDS011;8068;51.322;9.450;2023-08-30T14:14:05;4.27;;;4.07;;
15938;SDS011;8068;51.322;9.450;2023-08-30T14:16:52;7.37;;;4.30;;
15938;SDS011;8068;51.322;9.450;2023-08-30T14:19:39;4.33;;;4.00;;
15938;SDS011;8068;51.322;9.450;2023-08-30T14:22:26;4.80;;;4.40;;
15938;SDS011;8068;51.322;9.450;2023-08-30T14:25:13;5.13;;;4.20;;
15938;SDS011;8068;51.322;9.450;2023-08-30T14:28:00;5.00;;;4.50;;
15938;SDS011;8068;51.322;9.450;2023-08-30T14:30:47;4.10;;;3.80;;
15938;SDS011;8068;51.322;9.450;2023-08-30T14:33:34;4.20;;;3.93;;
15938;SDS011;8068;51.322;9.450;2023-08-30T14:36:22;6.50;;;3.87;;
15938;SDS011;8068;51.322;9.450;2023-08-30T14:39:09;4.50;;;4.00;;
15938;SDS011;8068;51.322;9.450;2023-08-30T14:41:58;3.63;;;3.43;;
15938;SDS011;8068;51.322;9.450;2023-08-30T14:44:48;4.27;;;3.97;;
15938;SDS011;8068;51.322;9.450;2023-08-30T14:47:35;3.93;;;3.73;;
15938;SDS011;8068;51.322;9.450;2023-08-30T14:50:20;4.40;;;4.03;;
15938;SDS011;8068;51.322;9.450;2023-08-30T14:53:06;5.03;;;4.20;;
15938;SDS011;8068;51.322;9.450;2023-08-30T14:55:51;4.37;;;3.87;;
15938;SDS011;8068;51.322;9.450;2023-08-30T14:58:36;3.87;;;3.67;;
15938;SDS011;8068;51.322;9.450;2023-08-30T15:01:21;4.40;;;3.97;;
15938;SDS011;8068;51.322;9.450;2023-08-30T15:04:07;5.77;;;5.07;;
15938;SDS011;8068;51.322;9.450;2023-08-30T15:06:52;6.57;;;5.97;;
15938;SDS011;8068;51.322;9.450;2023-08-30T15:09:26;6.47;;;5.87;;
15938;SDS011;8068;51.322;9.450;2023-08-30T15:12:06;6.03;;;5.53;;
15938;SDS011;8068;51.322;9.450;2023-08-30T15:14:41;10.03;;;6.43;;
15938;SDS011;8068;51.322;9.450;2023-08-30T15:17:09;6.17;;;5.67;;
15938;SDS011;8068;51.322;9.450;2023-08-30T15:19:36;7.80;;;7.10;;
15938;SDS011;8068;51.322;9.450;2023-08-30T15:22:03;6.23;;;5.60;;
15938;SDS011;8068;51.322;9.450;2023-08-30T15:24:32;6.97;;;6.20;;
15938;SDS011;8068;51.322;9.450;2023-08-30T15:26:59;5.50;;;5.20;;
15938;SDS011;8068;51.322;9.450;2023-08-30T15:29:26;4.93;;;4.63;;
15938;SDS011;8068;51.322;9.450;2023-08-30T15:31:52;5.00;;;4.50;;
15938;SDS011;8068;51.322;9.450;2023-08-30T15:34:20;5.20;;;4.70;;
15938;SDS011;8068;51.322;9.450;2023-08-30T15:36:47;6.20;;;4.90;;
15938;SDS011;8068;51.322;9.450;2023-08-30T15:39:14;4.80;;;4.13;;
15938;SDS011;8068;51.322;9.450;2023-08-30T15:41:44;4.47;;;4.13;;
15938;SDS011;8068;51.322;9.450;2023-08-30T15:44:11;4.53;;;4.10;;
15938;SDS011;8068;51.322;9.450;2023-08-30T15:46:38;4.40;;;4.00;;
15938;SDS011;8068;51.322;9.450;2023-08-30T15:49:05;5.00;;;4.50;;
15938;SDS011;8068;51.322;9.450;2023-08-30T15:51:32;4.43;;;4.10;;
15938;SDS011;8068;51.322;9.450;2023-08-30T15:53:59;3.83;;;3.53;;
15938;SDS011;8068;51.322;9.450;2023-08-30T15:56:27;4.73;;;4.20;;
15938;SDS011;8068;51.322;9.450;2023-08-30T15:58:53;4.00;;;3.77;;
15938;SDS011;8068;51.322;9.450;2023-08-30T16:01:21;4.47;;;3.83;;
15938;SDS011;8068;51.322;9.450;2023-08-30T16:03:48;4.17;;;3.87;;
15938;SDS011;8068;51.322;9.450;2023-08-30T16:06:16;5.87;;;3.60;;
15938;SDS011;8068;51.322;9.450;2023-08-30T16:08:42;4.30;;;4.00;;
15938;SDS011;8068;51.322;9.450;2023-08-30T16:11:09;4.20;;;3.80;;
15938;SDS011;8068;51.322;9.450;2023-08-30T16:13:36;4.07;;;3.60;;
15938;SDS011;8068;51.322;9.450;2023-08-30T16:16:03;4.80;;;4.00;;
15938;SDS011;8068;51.322;9.450;2023-08-30T16:18:30;3.57;;;3.37;;
15938;SDS011;8068;51.322;9.450;2023-08-30T16:20:58;4.53;;;3.57;;
15938;SDS011;8068;51.322;9.450;2023-08-30T16:23:25;3.57;;;3.33;;
15938;SDS011;8068;51.322;9.450;2023-08-30T16:25:56;3.60;;;3.40;;
15938;SDS011;8068;51.322;9.450;2023-08-30T16:28:25;6.13;;;3.33;;
15938;SDS011;8068;51.322;9.450;2023-08-30T16:30:58;3.20;;;3.00;;
15938;SDS011;8068;51.322;9.450;2023-08-30T16:33:30;4.33;;;3.03;;
15938;SDS011;8068;51.322;9.450;2023-08-30T16:36:00;5.10;;;2.90;;
15938;SDS011;8068;51.322;9.450;2023-08-30T16:38:29;3.30;;;3.10;;
15938;SDS011;8068;51.322;9.450;2023-08-30T16:40:56;3.03;;;2.83;;
15938;SDS011;8068;51.322;9.450;2023-08-30T16:43:30;4.90;;;3.87;;
15938;SDS011;8068;51.322;9.450;2023-08-30T16:45:57;5.40;;;3.20;;
15938;SDS011;8068;51.322;9.450;2023-08-30T16:48:25;3.40;;;2.40;;
15938;SDS011;8068;51.322;9.450;2023-08-30T16:50:52;1.40;;;1.30;;
15938;SDS011;8068;51.322;9.450;2023-08-30T16:53:19;1.97;;;1.20;;
15938;SDS011;8068;51.322;9.450;2023-08-30T16:55:46;2.37;;;1.07;;
15938;SDS011;8068;51.322;9.450;2023-08-30T16:58:13;2.13;;;1.70;;
15938;SDS011;8068;51.322;9.450;2023-08-30T17:00:40;1.50;;;1.30;;
15938;SDS011;8068;51.322;9.450;2023-08-30T17:03:07;2.57;;;2.00;;
15938;SDS011;8068;51.322;9.450;2023-08-30T17:05:37;3.53;;;1.60;;
15938;SDS011;8068;51.322;9.450;2023-08-30T17:08:06;1.30;;;1.20;;
15938;SDS011;8068;51.322;9.450;2023-08-30T17:10:33;1.40;;;1.30;;
15938;SDS011;8068;51.322;9.450;2023-08-30T17:13:03;1.90;;;1.53;;
15938;SDS011;8068;51.322;9.450;2023-08-30T17:15:30;3.77;;;1.50;;
15938;SDS011;8068;51.322;9.450;2023-08-30T17:17:57;1.80;;;1.70;;
15938;SDS011;8068;51.322;9.450;2023-08-30T17:20:24;1.83;;;1.13;;
15938;SDS011;8068;51.322;9.450;2023-08-30T17:22:51;1.77;;;1.67;;
15938;SDS011;8068;51.322;9.450;2023-08-30T17:25:18;1.67;;;1.40;;
15938;SDS011;8068;51.322;9.450;2023-08-30T17:27:45;1.60;;;1.50;;
15938;SDS011;8068;51.322;9.450;2023-08-30T17:30:12;3.53;;;1.50;;
15938;SDS011;8068;51.322;9.450;2023-08-30T17:32:40;6.13;;;1.80;;
15938;SDS011;8068;51.322;9.450;2023-08-30T17:35:07;1.60;;;1.40;;
15938;SDS011;8068;51.322;9.450;2023-08-30T17:37:34;1.57;;;1.40;;
15938;SDS011;8068;51.322;9.450;2023-08-30T17:40:01;1.70;;;1.60;;
15938;SDS011;8068;51.322;9.450;2023-08-30T17:42:28;8.50;;;2.00;;
15938;SDS011;8068;51.322;9.450;2023-08-30T17:44:55;1.87;;;1.60;;
15938;SDS011;8068;51.322;9.450;2023-08-30T17:47:26;4.30;;;2.60;;
15938;SDS011;8068;51.322;9.450;2023-08-30T17:49:54;1.70;;;1.53;;
15938;SDS011;8068;51.322;9.450;2023-08-30T17:52:21;2.27;;;1.80;;
15938;SDS011;8068;51.322;9.450;2023-08-30T17:54:48;1.73;;;1.50;;
15938;SDS011;8068;51.322;9.450;2023-08-30T17:57:15;2.13;;;2.03;;
15938;SDS011;8068;51.322;9.450;2023-08-30T17:59:43;2.60;;;1.93;;
15938;SDS011;8068;51.322;9.450;2023-08-30T18:02:10;1.83;;;1.70;;
15938;SDS011;8068;51.322;9.450;2023-08-30T18:04:38;1.70;;;1.60;;
15938;SDS011;8068;51.322;9.450;2023-08-30T18:07:05;3.03;;;1.73;;
15938;SDS011;8068;51.322;9.450;2023-08-30T18:09:32;3.10;;;1.80;;
15938;SDS011;8068;51.322;9.450;2023-08-30T18:11:59;2.23;;;1.60;;
15938;SDS011;8068;51.322;9.450;2023-08-30T18:14:29;1.93;;;1.50;;
15938;SDS011;8068;51.322;9.450;2023-08-30T18:16:56;2.07;;;1.97;;
15938;SDS011;8068;51.322;9.450;2023-08-30T18:19:23;2.57;;;1.57;;
15938;SDS011;8068;51.322;9.450;2023-08-30T18:21:50;2.40;;;1.60;;
15938;SDS011;8068;51.322;9.450;2023-08-30T18:24:17;2.27;;;2.17;;
15938;SDS011;8068;51.322;9.450;2023-08-30T18:26:47;2.03;;;1.90;;
15938;SDS011;8068;51.322;9.450;2023-08-30T18:29:15;1.97;;;1.83;;
15938;SDS011;8068;51.322;9.450;2023-08-30T18:31:44;3.03;;;2.00;;
15938;SDS011;8068;51.322;9.450;2023-08-30T18:34:11;2.40;;;2.20;;
15938;SDS011;8068;51.322;9.450;2023-08-30T18:36:38;3.13;;;2.37;;
15938;SDS011;8068;51.322;9.450;2023-08-30T18:39:05;2.20;;;2.10;;
15938;SDS011;8068;51.322;9.450;2023-08-30T18:41:34;1.93;;;1.80;;
15938;SDS011;8068;51.322;9.450;2023-08-30T18:44:01;2.00;;;1.90;;
15938;SDS011;8068;51.322;9.450;2023-08-30T18:46:29;4.50;;;2.10;;
15938;SDS011;8068;51.322;9.450;2023-08-30T18:48:56;6.43;;;2.17;;
15938;SDS011;8068;51.322;9.450;2023-08-30T18:51:23;2.40;;;2.30;;
15938;SDS011;8068;51.322;9.450;2023-08-30T18:53:51;3.50;;;2.10;;
15938;SDS011;8068;51.322;9.450;2023-08-30T18:56:18;2.97;;;2.10;;
15938;SDS011;8068;51.322;9.450;2023-08-30T18:58:45;2.53;;;2.33;;
15938;SDS011;8068;51.322;9.450;2023-08-30T19:01:13;2.97;;;2.70;;
15938;SDS011;8068;51.322;9.450;2023-08-30T19:03:43;4.80;;;2.00;;
15938;SDS011;8068;51.322;9.450;2023-08-30T19:06:10;2.53;;;2.37;;
15938;SDS011;8068;51.322;9.450;2023-08-30T19:08:38;2.10;;;2.00;;
15938;SDS011;8068;51.322;9.450;2023-08-30T19:11:05;3.30;;;3.00;;
15938;SDS011;8068;51.322;9.450;2023-08-30T19:13:32;2.27;;;2.07;;
15938;SDS011;8068;51.322;9.450;2023-08-30T19:16:01;3.80;;;2.13;;
15938;SDS011;8068;51.322;9.450;2023-08-30T19:18:27;2.47;;;2.30;;
15938;SDS011;8068;51.322;9.450;2023-08-30T19:20:59;4.03;;;2.50;;
15938;SDS011;8068;51.322;9.450;2023-08-30T19:23:27;3.20;;;1.97;;
15938;SDS011;8068;51.322;9.450;2023-08-30T19:25:55;2.90;;;2.70;;
15938;SDS011;8068;51.322;9.450;2023-08-30T19:28:22;3.67;;;2.63;;
15938;SDS011;8068;51.322;9.450;2023-08-30T19:30:51;2.03;;;1.93;;
15938;SDS011;8068;51.322;9.450;2023-08-30T19:33:19;2.30;;;2.20;;
15938;SDS011;8068;51.322;9.450;2023-08-30T19:35:46;2.20;;;2.10;;
15938;SDS011;8068;51.322;9.450;2023-08-30T19:38:13;2.10;;;2.00;;
15938;SDS011;8068;51.322;9.450;2023-08-30T19:41:14;2.30;;;2.17;;
15938;SDS011;8068;51.322;9.450;2023-08-30T19:43:33;2.73;;;2.40;;
15938;SDS011;8068;51.322;9.450;2023-08-30T19:46:02;3.03;;;2.80;;
15938;SDS011;8068;51.322;9.450;2023-08-30T19:48:30;2.10;;;2.00;;
15938;SDS011;8068;51.322;9.450;2023-08-30T19:50:57;2.33;;;2.13;;
15938;SDS011;8068;51.322;9.450;2023-08-30T19:53:26;3.70;;;2.20;;
15938;SDS011;8068;51.322;9.450;2023-08-30T19:55:53;4.47;;;2.70;;
15938;SDS011;8068;51.322;9.450;2023-08-30T19:58:22;3.63;;;2.63;;
15938;SDS011;8068;51.322;9.450;2023-08-30T20:00:49;2.43;;;2.23;;
15938;SDS011;8068;51.322;9.450;2023-08-30T20:03:16;3.17;;;2.40;;
15938;SDS011;8068;51.322;9.450;2023-08-30T20:05:50;2.00;;;1.90;;
15938;SDS011;8068;51.322;9.450;2023-08-30T20:08:18;2.50;;;2.40;;
15938;SDS011;8068;51.322;9.450;2023-08-30T20:10:46;3.10;;;1.90;;
15938;SDS011;8068;51.322;9.450;2023-08-30T20:13:13;3.13;;;2.33;;
15938;SDS011;8068;51.322;9.450;2023-08-30T20:15:40;2.33;;;2.10;;
15938;SDS011;8068;51.322;9.450;2023-08-30T20:18:08;2.20;;;2.00;;
15938;SDS011;8068;51.322;9.450;2023-08-30T20:20:36;3.53;;;2.00;;
15938;SDS011;8068;51.322;9.450;2023-08-30T20:23:04;2.03;;;1.93;;
15938;SDS011;8068;51.322;9.450;2023-08-30T20:25:31;3.40;;;1.97;;
15938;SDS011;8068;51.322;9.450;2023-08-30T20:27:59;2.40;;;2.20;;
15938;SDS011;8068;51.322;9.450;2023-08-30T20:30:26;2.90;;;2.30;;
15938;SDS011;8068;51.322;9.450;2023-08-30T20:32:54;2.20;;;2.10;;
15938;SDS011;8068;51.322;9.450;2023-08-30T20:35:21;2.00;;;1.90;;
15938;SDS011;8068;51.322;9.450;2023-08-30T20:37:49;2.87;;;2.13;;
15938;SDS011;8068;51.322;9.450;2023-08-30T20:40:18;2.17;;;1.90;;
15938;SDS011;8068;51.322;9.450;2023-08-30T20:42:45;2.07;;;1.70;;
15938;SDS011;8068;51.322;9.450;2023-08-30T20:45:13;5.43;;;1.60;;
15938;SDS011;8068;51.322;9.450;2023-08-30T20:47:39;1.67;;;1.50;;
15938;SDS011;8068;51.322;9.450;2023-08-30T20:50:07;3.07;;;1.53;;
15938;SDS011;8068;51.322;9.450;2023-08-30T20:52:35;4.30;;;1.87;;
15938;SDS011;8068;51.322;9.450;2023-08-30T20:55:02;2.00;;;1.80;;
15938;SDS011;8068;51.322;9.450;2023-08-30T20:57:33;1.63;;;1.53;;
15938;SDS011;8068;51.322;9.450;2023-08-30T21:00:01;2.57;;;1.77;;
15938;SDS011;8068;51.322;9.450;2023-08-30T21:02:28;2.33;;;1.70;;
15938;SDS011;8068;51.322;9.450;2023-08-30T21:05:00;2.17;;;1.80;;
15938;SDS011;8068;51.322;9.450;2023-08-30T21:07:35;3.20;;;1.80;;
15938;SDS011;8068;51.322;9.450;2023-08-30T21:10:02;2.27;;;2.17;;
15938;SDS011;8068;51.322;9.450;2023-08-30T21:12:30;2.10;;;2.00;;
15938;SDS011;8068;51.322;9.450;2023-08-30T21:14:57;1.63;;;1.53;;
15938;SDS011;8068;51.322;9.450;2023-08-30T21:17:24;1.80;;;1.70;;
15938;SDS011;8068;51.322;9.450;2023-08-30T21:19:51;1.70;;;1.50;;
15938;SDS011;8068;51.322;9.450;2023-08-30T21:22:18;1.90;;;1.80;;
15938;SDS011;8068;51.322;9.450;2023-08-30T21:24:45;3.00;;;1.87;;
15938;SDS011;8068;51.322;9.450;2023-08-30T21:27:12;3.30;;;1.90;;
15938;SDS011;8068;51.322;9.450;2023-08-30T21:29:39;4.20;;;2.20;;
15938;SDS011;8068;51.322;9.450;2023-08-30T21:32:06;2.80;;;1.90;;
15938;SDS011;8068;51.322;9.450;2023-08-30T21:34:32;2.90;;;2.70;;
15938;SDS011;8068;51.322;9.450;2023-08-30T21:36:59;2.63;;;2.43;;
15938;SDS011;8068;51.322;9.450;2023-08-30T21:39:26;3.23;;;2.30;;
15938;SDS011;8068;51.322;9.450;2023-08-30T21:41:54;2.60;;;2.27;;
15938;SDS011;8068;51.322;9.450;2023-08-30T21:44:21;2.87;;;2.07;;
15938;SDS011;8068;51.322;9.450;2023-08-30T21:46:48;2.70;;;2.20;;
15938;SDS011;8068;51.322;9.450;2023-08-30T21:49:15;2.10;;;2.00;;
15938;SDS011;8068;51.322;9.450;2023-08-30T21:51:41;2.23;;;2.03;;
15938;SDS011;8068;51.322;9.450;2023-08-30T21:54:08;2.37;;;2.17;;
15938;SDS011;8068;51.322;9.450;2023-08-30T21:56:35;2.63;;;2.43;;
15938;SDS011;8068;51.322;9.450;2023-08-30T21:59:03;2.33;;;2.23;;
15938;SDS011;8068;51.322;9.450;2023-08-30T22:01:30;2.70;;;2.50;;
15938;SDS011;8068;51.322;9.450;2023-08-30T22:03:57;3.13;;;2.50;;
15938;SDS011;8068;51.322;9.450;2023-08-30T22:06:25;2.90;;;2.80;;
15938;SDS011;8068;51.322;9.450;2023-08-30T22:08:52;2.53;;;2.43;;
15938;SDS011;8068;51.322;9.450;2023-08-30T22:11:19;3.90;;;2.07;;
15938;SDS011;8068;51.322;9.450;2023-08-30T22:13:46;3.47;;;2.67;;
15938;SDS011;8068;51.322;9.450;2023-08-30T22:16:13;3.63;;;2.20;;
15938;SDS011;8068;51.322;9.450;2023-08-30T22:18:40;3.33;;;2.70;;
15938;SDS011;8068;51.322;9.450;2023-08-30T22:21:07;3.00;;;2.57;;
15938;SDS011;8068;51.322;9.450;2023-08-30T22:23:34;2.40;;;2.30;;
15938;SDS011;8068;51.322;9.450;2023-08-30T22:26:00;2.10;;;2.00;;
15938;SDS011;8068;51.322;9.450;2023-08-30T22:28:27;2.20;;;2.10;;
15938;SDS011;8068;51.322;9.450;2023-08-30T22:30:54;6.07;;;2.20;;
15938;SDS011;8068;51.322;9.450;2023-08-30T22:33:21;2.40;;;2.30;;
15938;SDS011;8068;51.322;9.450;2023-08-30T22:35:48;2.07;;;1.97;;
15938;SDS011;8068;51.322;9.450;2023-08-30T22:38:15;1.97;;;1.60;;
15938;SDS011;8068;51.322;9.450;2023-08-30T22:40:42;2.13;;;2.03;;
15938;SDS011;8068;51.322;9.450;2023-08-30T22:43:09;2.13;;;1.93;;
15938;SDS011;8068;51.322;9.450;2023-08-30T22:45:37;4.03;;;2.23;;
15938;SDS011;8068;51.322;9.450;2023-08-30T22:48:05;2.20;;;2.03;;
15938;SDS011;8068;51.322;9.450;2023-08-30T22:50:33;2.20;;;2.10;;
15938;SDS011;8068;51.322;9.450;2023-08-30T22:53:00;2.10;;;1.90;;
15938;SDS011;8068;51.322;9.450;2023-08-30T22:55:27;2.60;;;2.43;;
15938;SDS011;8068;51.322;9.450;2023-08-30T22:57:53;2.33;;;2.23;;
15938;SDS011;8068;51.322;9.450;2023-08-30T23:00:21;3.40;;;2.70;;
15938;SDS011;8068;51.322;9.450;2023-08-30T23:02:48;3.30;;;2.50;;
15938;SDS011;8068;51.322;9.450;2023-08-30T23:05:17;3.77;;;3.50;;
15938;SDS011;8068;51.322;9.450;2023-08-30T23:07:44;2.50;;;2.30;;
15938;SDS011;8068;51.322;9.450;2023-08-30T23:10:13;2.97;;;2.87;;
15938;SDS011;8068;51.322;9.450;2023-08-30T23:12:40;3.20;;;2.93;;
15938;SDS011;8068;51.322;9.450;2023-08-30T23:15:07;3.20;;;3.10;;
15938;SDS011;8068;51.322;9.450;2023-08-30T23:17:44;3.13;;;2.43;;
15938;SDS011;8068;51.322;9.450;2023-08-30T23:20:12;3.43;;;3.23;;
15938;SDS011;8068;51.322;9.450;2023-08-30T23:22:40;2.87;;;2.50;;
15938;SDS011;8068;51.322;9.450;2023-08-30T23:25:08;3.23;;;3.13;;
15938;SDS011;8068;51.322;9.450;2023-08-30T23:27:35;3.17;;;2.97;;
15938;SDS011;8068;51.322;9.450;2023-08-30T23:30:02;3.50;;;3.00;;
15938;SDS011;8068;51.322;9.450;2023-08-30T23:32:32;3.57;;;3.27;;
15938;SDS011;8068;51.322;9.450;2023-08-30T23:35:00;4.00;;;3.80;;
15938;SDS011;8068;51.322;9.450;2023-08-30T23:37:27;3.03;;;2.83;;
15938;SDS011;8068;51.322;9.450;2023-08-30T23:39:54;3.77;;;3.57;;
15938;SDS011;8068;51.322;9.450;2023-08-30T23:42:21;3.30;;;3.03;;
15938;SDS011;8068;51.322;9.450;2023-08-30T23:44:49;3.87;;;3.57;;
15938;SDS011;8068;51.322;9.450;2023-08-30T23:47:15;3.70;;;3.50;;
15938;SDS011;8068;51.322;9.450;2023-08-30T23:49:42;3.30;;;3.20;;
15938;SDS011;8068;51.322;9.450;2023-08-30T23:52:09;2.93;;;2.83;;
15938;SDS011;8068;51.322;9.450;2023-08-30T23:54:36;3.43;;;3.23;;
15938;SDS011;8068;51.322;9.450;2023-08-30T23:57:03;3.10;;;2.90;;
15938;SDS011;8068;51.322;9.450;2023-08-30T23:59:30;3.33;;;3.17;;
